createdAt,value
2018-06-29T00:00:58.906Z,1013.77
2018-06-29T00:01:58.888Z,1013.73
2018-06-29T00:02:58.873Z,1013.72
2018-06-29T00:03:58.862Z,1013.73
2018-06-29T00:04:58.847Z,1013.70
2018-06-29T00:05:58.832Z,1013.68
2018-06-29T00:06:58.828Z,1013.67
2018-06-29T00:07:58.811Z,1013.66
2018-06-29T00:08:58.792Z,1013.64
2018-06-29T00:09:58.779Z,1013.67
2018-06-29T00:10:58.767Z,1013.63
2018-06-29T00:11:58.755Z,1013.60
2018-06-29T00:12:58.739Z,1013.62
2018-06-29T00:13:58.727Z,1013.62
2018-06-29T00:14:58.714Z,1013.62
2018-06-29T00:15:58.700Z,1013.64
2018-06-29T00:16:58.689Z,1013.65
2018-06-29T00:17:58.675Z,1013.66
2018-06-29T00:18:58.660Z,1013.71
2018-06-29T00:19:58.649Z,1013.72
2018-06-29T00:20:58.634Z,1013.71
2018-06-29T00:21:58.624Z,1013.74
2018-06-29T00:22:58.615Z,1013.72
2018-06-29T00:23:58.602Z,1013.71
2018-06-29T00:24:58.580Z,1013.72
2018-06-29T00:25:58.574Z,1013.71
2018-06-29T00:26:58.554Z,1013.70
2018-06-29T00:27:58.539Z,1013.73
2018-06-29T00:28:58.525Z,1013.70
2018-06-29T00:29:58.512Z,1013.72
2018-06-29T00:30:58.500Z,1013.70
2018-06-29T00:31:58.488Z,1013.71
2018-06-29T00:32:58.470Z,1013.72
2018-06-29T00:33:58.459Z,1013.72
2018-06-29T00:34:58.444Z,1013.71
2018-06-29T00:35:58.431Z,1013.73
2018-06-29T00:36:58.417Z,1013.70
2018-06-29T00:37:58.404Z,1013.75
2018-06-29T00:38:58.392Z,1013.71
2018-06-29T00:39:58.380Z,1013.73
2018-06-29T00:40:58.362Z,1013.77
2018-06-29T00:41:58.348Z,1013.72
2018-06-29T00:42:58.335Z,1013.76
2018-06-29T00:43:58.322Z,1013.73
2018-06-29T00:44:58.308Z,1013.76
2018-06-29T00:45:58.346Z,1013.72
2018-06-29T00:46:58.288Z,1013.70
2018-06-29T00:47:58.266Z,1013.74
2018-06-29T00:48:58.259Z,1013.74
2018-06-29T00:49:58.240Z,1013.69
2018-06-29T00:50:58.226Z,1013.73
2018-06-29T00:51:58.215Z,1013.74
2018-06-29T00:52:58.200Z,1013.76
2018-06-29T00:53:58.185Z,1013.74
2018-06-29T00:54:58.171Z,1013.72
2018-06-29T00:55:58.165Z,1013.74
2018-06-29T00:56:58.143Z,1013.73
2018-06-29T00:57:58.130Z,1013.78
2018-06-29T00:58:58.117Z,1013.76
2018-06-29T00:59:58.107Z,1013.75
2018-06-29T01:00:58.089Z,1013.75
2018-06-29T01:01:58.076Z,1013.75
2018-06-29T01:02:58.066Z,1013.73
2018-06-29T01:03:58.050Z,1013.70
2018-06-29T01:04:58.033Z,1013.68
2018-06-29T01:05:58.019Z,1013.70
2018-06-29T01:06:58.006Z,1013.72
2018-06-29T01:07:57.994Z,1013.71
2018-06-29T01:08:57.978Z,1013.67
2018-06-29T01:09:57.963Z,1013.64
2018-06-29T01:10:57.951Z,1013.67
2018-06-29T01:11:57.936Z,1013.64
2018-06-29T01:12:57.922Z,1013.64
2018-06-29T01:13:57.910Z,1013.65
2018-06-29T01:14:57.894Z,1013.68
2018-06-29T01:15:57.882Z,1013.63
2018-06-29T01:16:57.868Z,1013.69
2018-06-29T01:17:57.855Z,1013.66
2018-06-29T01:18:57.839Z,1013.65
2018-06-29T01:19:57.826Z,1013.69
2018-06-29T01:20:57.811Z,1013.64
2018-06-29T01:21:57.797Z,1013.61
2018-06-29T01:22:57.784Z,1013.60
2018-06-29T01:23:57.770Z,1013.57
2018-06-29T01:24:57.757Z,1013.59
2018-06-29T01:25:57.745Z,1013.53
2018-06-29T01:26:57.729Z,1013.54
2018-06-29T01:27:57.716Z,1013.49
2018-06-29T01:28:57.699Z,1013.49
2018-06-29T01:29:57.685Z,1013.50
2018-06-29T01:30:57.671Z,1013.49
2018-06-29T01:31:57.659Z,1013.49
2018-06-29T01:32:58.250Z,1013.52
2018-06-29T01:33:57.638Z,1013.55
2018-06-29T01:34:57.620Z,1013.59
2018-06-29T01:35:57.605Z,1013.56
2018-06-29T01:36:57.587Z,1013.60
2018-06-29T01:37:57.572Z,1013.61
2018-06-29T01:38:57.559Z,1013.63
2018-06-29T01:39:57.546Z,1013.62
2018-06-29T01:40:57.537Z,1013.60
2018-06-29T01:41:57.520Z,1013.65
2018-06-29T01:42:57.505Z,1013.60
2018-06-29T01:43:57.488Z,1013.57
2018-06-29T01:44:57.475Z,1013.61
2018-06-29T01:45:57.462Z,1013.61
2018-06-29T01:46:57.446Z,1013.62
2018-06-29T01:47:57.433Z,1013.63
2018-06-29T01:48:57.417Z,1013.65
2018-06-29T01:49:57.404Z,1013.63
2018-06-29T01:50:57.391Z,1013.61
2018-06-29T01:51:57.377Z,1013.63
2018-06-29T01:52:57.360Z,1013.63
2018-06-29T01:53:57.372Z,1013.63
2018-06-29T01:54:57.334Z,1013.61
2018-06-29T01:55:57.318Z,1013.62
2018-06-29T01:56:57.306Z,1013.59
2018-06-29T01:57:57.291Z,1013.57
2018-06-29T01:58:57.281Z,1013.58
2018-06-29T01:59:57.262Z,1013.51
2018-06-29T02:00:57.248Z,1013.53
2018-06-29T02:01:57.234Z,1013.56
2018-06-29T02:02:57.220Z,1013.51
2018-06-29T02:03:57.207Z,1013.53
2018-06-29T02:04:57.190Z,1013.48
2018-06-29T02:05:57.176Z,1013.47
2018-06-29T02:06:57.162Z,1013.46
2018-06-29T02:07:57.182Z,1013.50
2018-06-29T02:08:57.133Z,1013.49
2018-06-29T02:09:57.122Z,1013.48
2018-06-29T02:10:57.105Z,1013.49
2018-06-29T02:11:57.093Z,1013.50
2018-06-29T02:12:57.076Z,1013.52
2018-06-29T02:13:57.063Z,1013.48
2018-06-29T02:14:57.046Z,1013.48
2018-06-29T02:15:57.034Z,1013.51
2018-06-29T02:16:57.023Z,1013.52
2018-06-29T02:17:57.006Z,1013.51
2018-06-29T02:18:56.989Z,1013.50
2018-06-29T02:19:56.976Z,1013.49
2018-06-29T02:20:56.960Z,1013.47
2018-06-29T02:21:56.951Z,1013.47
2018-06-29T02:22:56.933Z,1013.45
2018-06-29T02:23:56.918Z,1013.44
2018-06-29T02:24:56.910Z,1013.43
2018-06-29T02:25:56.889Z,1013.45
2018-06-29T02:26:56.876Z,1013.42
2018-06-29T02:27:56.861Z,1013.39
2018-06-29T02:28:56.848Z,1013.40
2018-06-29T02:29:56.832Z,1013.39
2018-06-29T02:30:56.818Z,1013.40
2018-06-29T02:31:56.804Z,1013.37
2018-06-29T02:32:56.791Z,1013.36
2018-06-29T02:33:56.778Z,1013.36
2018-06-29T02:34:56.760Z,1013.35
2018-06-29T02:35:56.745Z,1013.33
2018-06-29T02:36:56.734Z,1013.26
2018-06-29T02:37:56.717Z,1013.31
2018-06-29T02:38:56.702Z,1013.30
2018-06-29T02:39:56.689Z,1013.32
2018-06-29T02:40:56.673Z,1013.32
2018-06-29T02:41:56.660Z,1013.28
2018-06-29T02:42:56.644Z,1013.33
2018-06-29T02:43:56.629Z,1013.30
2018-06-29T02:44:56.615Z,1013.28
2018-06-29T02:45:56.600Z,1013.30
2018-06-29T02:46:56.989Z,1013.31
2018-06-29T02:47:56.978Z,1013.32
2018-06-29T02:48:56.560Z,1013.34
2018-06-29T02:49:56.541Z,1013.36
2018-06-29T02:50:56.528Z,1013.37
2018-06-29T02:51:56.520Z,1013.39
2018-06-29T02:52:56.496Z,1013.34
2018-06-29T02:53:56.486Z,1013.31
2018-06-29T02:54:56.471Z,1013.26
2018-06-29T02:55:56.455Z,1013.24
2018-06-29T02:56:56.441Z,1013.25
2018-06-29T02:57:56.423Z,1013.19
2018-06-29T02:58:56.409Z,1013.21
2018-06-29T02:59:56.397Z,1013.15
2018-06-29T03:00:56.380Z,1013.11
2018-06-29T03:01:56.368Z,1013.10
2018-06-29T03:02:56.353Z,1013.14
2018-06-29T03:03:56.335Z,1013.12
2018-06-29T03:04:56.329Z,1013.11
2018-06-29T03:05:56.309Z,1013.11
2018-06-29T03:06:56.295Z,1013.08
2018-06-29T03:07:56.278Z,1013.07
2018-06-29T03:08:56.264Z,1013.07
2018-06-29T03:09:56.249Z,1013.04
2018-06-29T03:10:56.235Z,1013.06
2018-06-29T03:11:56.220Z,1013.04
2018-06-29T03:12:56.212Z,1013.01
2018-06-29T03:13:56.189Z,1013.01
2018-06-29T03:14:56.175Z,1013.00
2018-06-29T03:15:56.166Z,1012.99
2018-06-29T03:16:56.149Z,1013.00
2018-06-29T03:17:56.130Z,1012.99
2018-06-29T03:18:56.116Z,1013.01
2018-06-29T03:19:56.102Z,1013.00
2018-06-29T03:20:56.086Z,1013.01
2018-06-29T03:21:56.073Z,1013.02
2018-06-29T03:22:56.058Z,1012.99
2018-06-29T03:23:56.046Z,1012.96
2018-06-29T03:24:56.030Z,1012.95
2018-06-29T03:25:56.015Z,1012.98
2018-06-29T03:26:55.999Z,1012.96
2018-06-29T03:27:55.983Z,1012.93
2018-06-29T03:28:55.970Z,1012.92
2018-06-29T03:29:55.954Z,1012.91
2018-06-29T03:30:55.942Z,1012.89
2018-06-29T03:31:55.927Z,1012.89
2018-06-29T03:32:55.939Z,1012.87
2018-06-29T03:33:55.897Z,1012.87
2018-06-29T03:34:55.882Z,1012.83
2018-06-29T03:35:55.867Z,1012.84
2018-06-29T03:36:55.852Z,1012.79
2018-06-29T03:37:55.838Z,1012.81
2018-06-29T03:38:55.823Z,1012.81
2018-06-29T03:39:55.808Z,1012.75
2018-06-29T03:40:55.792Z,1012.76
2018-06-29T03:41:55.779Z,1012.77
2018-06-29T03:42:55.764Z,1012.78
2018-06-29T03:43:55.749Z,1012.78
2018-06-29T03:44:55.732Z,1012.77
2018-06-29T03:45:55.722Z,1012.78
2018-06-29T03:46:55.705Z,1012.75
2018-06-29T03:47:55.689Z,1012.77
2018-06-29T03:48:55.679Z,1012.78
2018-06-29T03:49:55.660Z,1012.76
2018-06-29T03:50:55.646Z,1012.73
2018-06-29T03:51:55.635Z,1012.72
2018-06-29T03:52:55.617Z,1012.74
2018-06-29T03:53:55.601Z,1012.73
2018-06-29T03:54:55.588Z,1012.70
2018-06-29T03:55:55.574Z,1012.74
2018-06-29T03:56:55.557Z,1012.76
2018-06-29T03:57:55.544Z,1012.76
2018-06-29T03:58:55.531Z,1012.74
2018-06-29T03:59:55.513Z,1012.72
2018-06-29T04:00:55.499Z,1012.73
2018-06-29T04:01:55.495Z,1012.71
2018-06-29T04:02:55.470Z,1012.71
2018-06-29T04:03:55.455Z,1012.66
2018-06-29T04:04:55.441Z,1012.67
2018-06-29T04:05:55.424Z,1012.65
2018-06-29T04:06:55.411Z,1012.70
2018-06-29T04:07:55.398Z,1012.67
2018-06-29T04:08:55.380Z,1012.63
2018-06-29T04:09:55.366Z,1012.65
2018-06-29T04:10:55.352Z,1012.64
2018-06-29T04:11:55.350Z,1012.65
2018-06-29T04:12:55.386Z,1012.67
2018-06-29T04:13:55.309Z,1012.64
2018-06-29T04:14:55.293Z,1012.65
2018-06-29T04:15:55.282Z,1012.64
2018-06-29T04:16:55.264Z,1012.63
2018-06-29T04:17:55.249Z,1012.64
2018-06-29T04:18:55.238Z,1012.62
2018-06-29T04:19:55.221Z,1012.62
2018-06-29T04:20:55.205Z,1012.66
2018-06-29T04:21:55.191Z,1012.56
2018-06-29T04:22:55.181Z,1012.60
2018-06-29T04:23:55.162Z,1012.60
2018-06-29T04:24:55.149Z,1012.58
2018-06-29T04:25:55.131Z,1012.57
2018-06-29T04:26:55.118Z,1012.60
2018-06-29T04:27:55.102Z,1012.57
2018-06-29T04:28:55.098Z,1012.58
2018-06-29T04:29:55.074Z,1012.58
2018-06-29T04:30:55.059Z,1012.64
2018-06-29T04:31:55.045Z,1012.63
2018-06-29T04:32:55.029Z,1012.66
2018-06-29T04:33:55.019Z,1012.67
2018-06-29T04:34:55.000Z,1012.65
2018-06-29T04:35:54.985Z,1012.67
2018-06-29T04:36:54.972Z,1012.66
2018-06-29T04:37:54.959Z,1012.66
2018-06-29T04:38:54.943Z,1012.65
2018-06-29T04:39:54.934Z,1012.66
2018-06-29T04:40:54.913Z,1012.65
2018-06-29T04:41:54.899Z,1012.64
2018-06-29T04:42:54.933Z,1012.67
2018-06-29T04:43:54.870Z,1012.62
2018-06-29T04:44:54.856Z,1012.61
2018-06-29T04:45:54.840Z,1012.62
2018-06-29T04:46:54.830Z,1012.62
2018-06-29T04:47:54.812Z,1012.55
2018-06-29T04:48:54.796Z,1012.58
2018-06-29T04:49:54.781Z,1012.62
2018-06-29T04:50:54.775Z,1012.60
2018-06-29T04:51:54.753Z,1012.59
2018-06-29T04:52:54.741Z,1012.58
2018-06-29T04:53:54.724Z,1012.62
2018-06-29T04:54:54.710Z,1012.65
2018-06-29T04:55:54.696Z,1012.67
2018-06-29T04:56:54.680Z,1012.67
2018-06-29T04:57:54.667Z,1012.68
2018-06-29T04:58:54.651Z,1012.67
2018-06-29T04:59:54.637Z,1012.66
2018-06-29T05:00:54.626Z,1012.63
2018-06-29T05:01:54.607Z,1012.64
2018-06-29T05:02:54.597Z,1012.62
2018-06-29T05:03:54.585Z,1012.58
2018-06-29T05:04:54.564Z,1012.59
2018-06-29T05:05:54.551Z,1012.63
2018-06-29T05:06:54.535Z,1012.60
2018-06-29T05:07:54.530Z,1012.62
2018-06-29T05:08:54.506Z,1012.61
2018-06-29T05:09:54.493Z,1012.61
2018-06-29T05:10:54.495Z,1012.68
2018-06-29T05:11:54.464Z,1012.69
2018-06-29T05:12:54.452Z,1012.67
2018-06-29T05:13:54.435Z,1012.65
2018-06-29T05:14:54.426Z,1012.68
2018-06-29T05:15:54.413Z,1012.71
2018-06-29T05:16:54.394Z,1012.68
2018-06-29T05:17:54.380Z,1012.64
2018-06-29T05:18:54.368Z,1012.61
2018-06-29T05:19:54.349Z,1012.60
2018-06-29T05:20:54.336Z,1012.57
2018-06-29T05:21:54.321Z,1012.59
2018-06-29T05:22:54.316Z,1012.63
2018-06-29T05:23:54.295Z,1012.60
2018-06-29T05:24:54.279Z,1012.63
2018-06-29T05:25:54.263Z,1012.65
2018-06-29T05:26:54.250Z,1012.60
2018-06-29T05:27:54.237Z,1012.63
2018-06-29T05:28:54.222Z,1012.58
2018-06-29T05:29:54.209Z,1012.65
2018-06-29T05:30:54.194Z,1012.62
2018-06-29T05:31:54.181Z,1012.56
2018-06-29T05:32:54.164Z,1012.56
2018-06-29T05:33:54.155Z,1012.55
2018-06-29T05:34:54.140Z,1012.50
2018-06-29T05:35:54.190Z,1012.54
2018-06-29T05:36:54.113Z,1012.48
2018-06-29T05:37:54.095Z,1012.51
2018-06-29T05:38:54.081Z,1012.51
2018-06-29T05:39:54.069Z,1012.53
2018-06-29T05:40:54.051Z,1012.52
2018-06-29T05:41:54.037Z,1012.54
2018-06-29T05:42:54.024Z,1012.50
2018-06-29T05:43:54.011Z,1012.53
2018-06-29T05:44:53.994Z,1012.52
2018-06-29T05:45:53.985Z,1012.52
2018-06-29T05:46:54.038Z,1012.50
2018-06-29T05:47:53.956Z,1012.54
2018-06-29T05:48:53.938Z,1012.52
2018-06-29T05:49:53.927Z,1012.54
2018-06-29T05:50:53.912Z,1012.54
2018-06-29T05:51:53.899Z,1012.53
2018-06-29T05:52:53.888Z,1012.54
2018-06-29T05:53:53.871Z,1012.56
2018-06-29T05:54:53.858Z,1012.53
2018-06-29T05:55:53.843Z,1012.56
2018-06-29T05:56:53.829Z,1012.52
2018-06-29T05:57:53.815Z,1012.55
2018-06-29T05:58:53.803Z,1012.56
2018-06-29T05:59:53.788Z,1012.53
2018-06-29T06:00:53.773Z,1012.53
2018-06-29T06:01:53.822Z,1012.53
2018-06-29T06:02:53.747Z,1012.49
2018-06-29T06:03:53.733Z,1012.53
2018-06-29T06:04:53.719Z,1012.52
2018-06-29T06:05:53.709Z,1012.55
2018-06-29T06:06:53.691Z,1012.53
2018-06-29T06:07:53.681Z,1012.52
2018-06-29T06:08:53.661Z,1012.53
2018-06-29T06:09:53.649Z,1012.57
2018-06-29T06:10:53.635Z,1012.52
2018-06-29T06:11:53.623Z,1012.57
2018-06-29T06:12:53.645Z,1012.56
2018-06-29T06:13:53.597Z,1012.58
2018-06-29T06:14:53.584Z,1012.59
2018-06-29T06:15:53.569Z,1012.63
2018-06-29T06:16:53.556Z,1012.64
2018-06-29T06:17:53.542Z,1012.64
2018-06-29T06:18:53.528Z,1012.68
2018-06-29T06:19:53.517Z,1012.69
2018-06-29T06:20:53.501Z,1012.66
2018-06-29T06:21:53.539Z,1012.65
2018-06-29T06:22:53.476Z,1012.68
2018-06-29T06:23:53.460Z,1012.68
2018-06-29T06:24:53.449Z,1012.65
2018-06-29T06:25:53.436Z,1012.65
2018-06-29T06:26:53.423Z,1012.64
2018-06-29T06:27:53.409Z,1012.67
2018-06-29T06:28:53.396Z,1012.68
2018-06-29T06:29:53.382Z,1012.66
2018-06-29T06:30:53.370Z,1012.66
2018-06-29T06:31:53.358Z,1012.64
2018-06-29T06:32:53.342Z,1012.66
2018-06-29T06:33:53.331Z,1012.69
2018-06-29T06:34:53.318Z,1012.70
2018-06-29T06:35:53.304Z,1012.67
2018-06-29T06:36:53.291Z,1012.72
2018-06-29T06:37:53.279Z,1012.68
2018-06-29T06:38:53.265Z,1012.73
2018-06-29T06:39:53.252Z,1012.74
2018-06-29T06:40:53.243Z,1012.73
2018-06-29T06:41:53.229Z,1012.69
2018-06-29T06:42:53.213Z,1012.68
2018-06-29T06:43:53.199Z,1012.71
2018-06-29T06:44:53.188Z,1012.68
2018-06-29T06:45:53.176Z,1012.69
2018-06-29T06:46:53.167Z,1012.63
2018-06-29T06:47:53.149Z,1012.68
2018-06-29T06:48:53.136Z,1012.67
2018-06-29T06:49:53.123Z,1012.67
2018-06-29T06:50:53.111Z,1012.68
2018-06-29T06:51:53.099Z,1012.69
2018-06-29T06:52:53.085Z,1012.67
2018-06-29T06:53:53.076Z,1012.71
2018-06-29T06:54:53.061Z,1012.66
2018-06-29T06:55:53.056Z,1012.68
2018-06-29T06:56:53.038Z,1012.64
2018-06-29T06:57:53.023Z,1012.64
2018-06-29T06:58:53.012Z,1012.67
2018-06-29T06:59:52.999Z,1012.68
2018-06-29T07:00:52.986Z,1012.69
2018-06-29T07:01:52.976Z,1012.67
2018-06-29T07:02:52.972Z,1012.63
2018-06-29T07:03:52.951Z,1012.62
2018-06-29T07:04:52.940Z,1012.66
2018-06-29T07:05:52.951Z,1012.61
2018-06-29T07:06:52.913Z,1012.60
2018-06-29T07:07:52.919Z,1012.62
2018-06-29T07:08:52.890Z,1012.65
2018-06-29T07:09:52.877Z,1012.64
2018-06-29T07:10:52.866Z,1012.66
2018-06-29T07:11:52.884Z,1012.68
2018-06-29T07:12:52.842Z,1012.68
2018-06-29T07:13:52.832Z,1012.67
2018-06-29T07:14:52.819Z,1012.66
2018-06-29T07:15:52.814Z,1012.66
2018-06-29T07:16:52.798Z,1012.66
2018-06-29T07:17:52.783Z,1012.58
2018-06-29T07:18:52.771Z,1012.60
2018-06-29T07:19:52.761Z,1012.64
2018-06-29T07:20:52.747Z,1012.62
2018-06-29T07:21:52.739Z,1012.63
2018-06-29T07:22:52.726Z,1012.64
2018-06-29T07:23:52.714Z,1012.61
2018-06-29T07:24:52.705Z,1012.62
2018-06-29T07:25:52.695Z,1012.58
2018-06-29T07:26:52.676Z,1012.61
2018-06-29T07:27:52.669Z,1012.59
2018-06-29T07:28:52.657Z,1012.61
2018-06-29T07:29:52.646Z,1012.63
2018-06-29T07:30:52.636Z,1012.63
2018-06-29T07:31:52.623Z,1012.61
2018-06-29T07:32:52.611Z,1012.59
2018-06-29T07:33:52.602Z,1012.64
2018-06-29T07:34:52.589Z,1012.51
2018-06-29T07:35:52.580Z,1012.52
2018-06-29T07:36:52.573Z,1012.55
2018-06-29T07:37:52.614Z,1012.59
2018-06-29T07:38:52.548Z,1012.69
2018-06-29T07:39:52.541Z,1012.67
2018-06-29T07:40:52.532Z,1012.70
2018-06-29T07:41:52.519Z,1012.69
2018-06-29T07:42:52.507Z,1012.72
2018-06-29T07:43:52.494Z,1012.69
2018-06-29T07:44:52.486Z,1012.66
2018-06-29T07:45:52.476Z,1012.60
2018-06-29T07:46:52.470Z,1012.54
2018-06-29T07:47:52.462Z,1012.54
2018-06-29T07:48:52.452Z,1012.50
2018-06-29T07:49:52.433Z,1012.47
2018-06-29T07:50:52.423Z,1012.45
2018-06-29T07:51:52.415Z,1012.44
2018-06-29T07:52:52.443Z,1012.39
2018-06-29T07:53:52.393Z,1012.42
2018-06-29T07:54:52.383Z,1012.40
2018-06-29T07:55:52.373Z,1012.38
2018-06-29T07:56:52.364Z,1012.41
2018-06-29T07:57:52.369Z,1012.36
2018-06-29T07:58:52.425Z,1012.36
2018-06-29T07:59:52.335Z,1012.41
2018-06-29T08:00:52.344Z,1012.34
2018-06-29T08:01:52.314Z,1012.33
2018-06-29T08:02:52.306Z,1012.33
2018-06-29T08:03:52.342Z,1012.32
2018-06-29T08:04:52.287Z,1012.32
2018-06-29T08:05:52.276Z,1012.36
2018-06-29T08:06:52.268Z,1012.32
2018-06-29T08:07:52.258Z,1012.35
2018-06-29T08:08:52.247Z,1012.30
2018-06-29T08:09:52.238Z,1012.32
2018-06-29T08:10:52.231Z,1012.30
2018-06-29T08:11:52.223Z,1012.31
2018-06-29T08:12:52.212Z,1012.33
2018-06-29T08:13:52.203Z,1012.48
2018-06-29T08:14:52.193Z,1012.79
2018-06-29T08:15:52.185Z,1013.21
2018-06-29T08:16:52.243Z,1013.40
2018-06-29T08:17:52.168Z,1013.19
2018-06-29T08:18:52.162Z,1013.06
2018-06-29T08:19:52.154Z,1013.10
2018-06-29T08:20:52.144Z,1013.16
2018-06-29T08:21:52.137Z,1013.08
2018-06-29T08:22:52.132Z,1013.07
2018-06-29T08:23:52.123Z,1013.03
2018-06-29T08:24:52.117Z,1012.96
2018-06-29T08:25:52.111Z,1012.90
2018-06-29T08:26:52.105Z,1012.80
2018-06-29T08:27:52.099Z,1012.67
2018-06-29T08:28:52.092Z,1012.60
2018-06-29T08:29:52.087Z,1012.49
2018-06-29T08:30:52.082Z,1012.47
2018-06-29T08:31:52.075Z,1012.45
2018-06-29T08:32:52.071Z,1012.46
2018-06-29T08:33:52.068Z,1012.48
2018-06-29T08:34:52.063Z,1012.51
2018-06-29T08:35:52.057Z,1012.47
2018-06-29T08:36:52.051Z,1012.44
2018-06-29T08:37:52.048Z,1012.44
2018-06-29T08:38:52.042Z,1012.38
2018-06-29T08:39:52.040Z,1012.40
2018-06-29T08:40:52.035Z,1012.37
2018-06-29T08:41:52.029Z,1012.32
2018-06-29T08:42:52.026Z,1012.31
2018-06-29T08:43:52.022Z,1012.30
2018-06-29T08:44:52.016Z,1012.29
2018-06-29T08:45:52.013Z,1012.30
2018-06-29T08:46:52.072Z,1012.34
2018-06-29T08:47:52.004Z,1012.47
2018-06-29T08:48:52.000Z,1012.68
2018-06-29T08:49:51.994Z,1012.84
2018-06-29T08:50:51.990Z,1013.00
2018-06-29T08:51:51.987Z,1013.04
2018-06-29T08:52:51.981Z,1012.90
2018-06-29T08:53:51.976Z,1012.77
2018-06-29T08:54:51.973Z,1012.63
2018-06-29T08:55:51.971Z,1012.43
2018-06-29T08:56:51.965Z,1012.32
2018-06-29T08:57:51.959Z,1012.30
2018-06-29T08:58:51.970Z,1012.25
2018-06-29T08:59:51.955Z,1012.24
2018-06-29T09:00:51.949Z,1012.25
2018-06-29T09:01:51.946Z,1012.25
2018-06-29T09:02:51.943Z,1012.24
2018-06-29T09:03:51.940Z,1012.24
2018-06-29T09:04:51.973Z,1012.17
2018-06-29T09:05:51.931Z,1012.18
2018-06-29T09:06:51.927Z,1012.21
2018-06-29T09:07:51.927Z,1012.15
2018-06-29T09:08:51.920Z,1012.13
2018-06-29T09:09:51.917Z,1012.21
2018-06-29T09:10:51.934Z,1012.18
2018-06-29T09:11:51.909Z,1012.20
2018-06-29T09:12:51.908Z,1012.38
2018-06-29T09:13:51.905Z,1012.66
2018-06-29T09:14:51.901Z,1012.99
2018-06-29T09:15:51.898Z,1013.33
2018-06-29T09:16:51.899Z,1013.66
2018-06-29T09:17:51.893Z,1013.80
2018-06-29T09:18:51.898Z,1013.43
2018-06-29T09:19:51.886Z,1012.55
2018-06-29T09:20:51.883Z,1012.18
2018-06-29T09:21:51.879Z,1012.12
2018-06-29T09:22:51.876Z,1012.02
2018-06-29T09:23:51.873Z,1012.06
2018-06-29T09:24:51.870Z,1012.05
2018-06-29T09:25:51.868Z,1012.01
2018-06-29T09:26:51.876Z,1012.03
2018-06-29T09:27:51.860Z,1012.00
2018-06-29T09:28:51.861Z,1011.98
2018-06-29T09:29:51.913Z,1011.94
2018-06-29T09:30:51.854Z,1012.01
2018-06-29T09:31:51.851Z,1012.49
2018-06-29T09:32:51.844Z,1013.48
2018-06-29T09:33:51.845Z,1013.38
2018-06-29T09:34:51.852Z,1013.39
2018-06-29T09:35:51.844Z,1013.50
2018-06-29T09:36:51.837Z,1013.46
2018-06-29T09:37:51.835Z,1013.46
2018-06-29T09:38:51.837Z,1013.49
2018-06-29T09:39:51.828Z,1013.50
2018-06-29T09:40:51.825Z,1013.48
2018-06-29T09:41:51.824Z,1013.58
2018-06-29T09:42:51.831Z,1013.54
2018-06-29T09:43:51.821Z,1013.31
2018-06-29T09:44:51.820Z,1013.16
2018-06-29T09:45:51.819Z,1012.73
2018-06-29T09:46:51.817Z,1012.82
2018-06-29T09:47:51.878Z,1012.27
2018-06-29T09:48:51.811Z,1012.20
2018-06-29T09:49:51.810Z,1012.27
2018-06-29T09:50:51.811Z,1012.45
2018-06-29T09:51:51.807Z,1012.56
2018-06-29T09:52:51.807Z,1012.39
2018-06-29T09:53:51.812Z,1012.23
2018-06-29T09:54:51.805Z,1012.09
2018-06-29T09:55:51.807Z,1011.99
2018-06-29T09:56:51.813Z,1012.04
2018-06-29T09:57:51.799Z,1012.05
2018-06-29T09:58:51.801Z,1011.88
2018-06-29T09:59:51.798Z,1011.85
2018-06-29T10:00:55.413Z,1011.88
2018-06-29T10:01:51.797Z,1011.90
2018-06-29T10:02:51.797Z,1011.93
2018-06-29T10:03:51.797Z,1011.98
2018-06-29T10:04:51.791Z,1012.19
2018-06-29T10:05:51.786Z,1012.44
2018-06-29T10:06:51.791Z,1012.37
2018-06-29T10:07:51.783Z,1012.39
2018-06-29T10:08:51.788Z,1012.37
2018-06-29T10:09:51.783Z,1012.38
2018-06-29T10:10:51.795Z,1012.34
2018-06-29T10:11:51.782Z,1012.46
2018-06-29T10:12:51.779Z,1012.41
2018-06-29T10:13:51.779Z,1012.30
2018-06-29T10:14:51.781Z,1012.24
2018-06-29T10:15:51.779Z,1012.13
2018-06-29T10:16:51.779Z,1012.04
2018-06-29T10:17:51.776Z,1011.92
2018-06-29T10:18:51.776Z,1011.91
2018-06-29T10:19:51.803Z,1011.85
2018-06-29T10:20:51.777Z,1011.79
2018-06-29T10:21:51.776Z,1011.84
2018-06-29T10:22:51.786Z,1011.90
2018-06-29T10:23:51.779Z,1011.87
2018-06-29T10:24:51.774Z,1011.77
2018-06-29T10:25:51.776Z,1011.79
2018-06-29T10:26:51.774Z,1011.73
2018-06-29T10:27:51.775Z,1011.72
2018-06-29T10:28:51.779Z,1011.49
2018-06-29T10:29:51.779Z,1011.61
2018-06-29T10:30:51.808Z,1011.62
2018-06-29T10:31:51.780Z,1011.64
2018-06-29T10:32:51.779Z,1011.73
2018-06-29T10:33:51.779Z,1011.66
2018-06-29T10:34:51.781Z,1011.64
2018-06-29T10:35:51.787Z,1011.56
2018-06-29T10:36:51.801Z,1011.59
2018-06-29T10:37:51.786Z,1011.60
2018-06-29T10:38:51.791Z,1011.57
2018-06-29T10:39:51.782Z,1011.54
2018-06-29T10:40:51.783Z,1011.62
2018-06-29T10:41:51.799Z,1011.57
2018-06-29T10:42:51.792Z,1011.59
2018-06-29T10:43:51.786Z,1011.42
2018-06-29T10:44:51.841Z,1011.39
2018-06-29T10:45:51.784Z,1011.46
2018-06-29T10:46:51.786Z,1011.33
2018-06-29T10:47:51.788Z,1011.33
2018-06-29T10:48:51.784Z,1011.31
2018-06-29T10:49:51.785Z,1011.36
2018-06-29T10:50:51.784Z,1011.37
2018-06-29T10:51:51.786Z,1011.38
2018-06-29T10:52:51.799Z,1011.44
2018-06-29T10:53:51.782Z,1011.29
2018-06-29T10:54:51.781Z,1011.22
2018-06-29T10:55:51.790Z,1011.23
2018-06-29T10:56:51.790Z,1011.22
2018-06-29T10:57:51.808Z,1011.23
2018-06-29T10:58:51.777Z,1011.23
2018-06-29T10:59:51.777Z,1011.18
2018-06-29T11:00:51.777Z,1011.09
2018-06-29T11:01:51.773Z,1011.09
2018-06-29T11:02:51.777Z,1011.09
2018-06-29T11:03:51.780Z,1011.09
2018-06-29T11:04:51.771Z,1011.08
2018-06-29T11:05:51.768Z,1011.08
2018-06-29T11:06:51.768Z,1011.11
2018-06-29T11:07:51.764Z,1011.01
2018-06-29T11:08:51.763Z,1011.02
2018-06-29T11:09:51.769Z,1011.05
2018-06-29T11:10:51.801Z,1011.04
2018-06-29T11:11:51.761Z,1010.96
2018-06-29T11:12:51.763Z,1011.01
2018-06-29T11:13:51.753Z,1011.01
2018-06-29T11:14:51.752Z,1011.05
2018-06-29T11:15:51.749Z,1011.04
2018-06-29T11:16:51.749Z,1011.05
2018-06-29T11:17:51.744Z,1011.11
2018-06-29T11:18:51.743Z,1011.07
2018-06-29T11:19:51.739Z,1011.02
2018-06-29T11:20:51.741Z,1011.06
2018-06-29T11:21:51.736Z,1011.04
2018-06-29T11:22:51.735Z,1011.01
2018-06-29T11:23:51.732Z,1010.95
2018-06-29T11:24:51.726Z,1010.97
2018-06-29T11:25:51.726Z,1010.93
2018-06-29T11:26:51.724Z,1010.96
2018-06-29T11:27:51.723Z,1010.93
2018-06-29T11:28:51.720Z,1010.91
2018-06-29T11:29:51.714Z,1010.89
2018-06-29T11:30:51.714Z,1010.87
2018-06-29T11:31:51.711Z,1010.81
2018-06-29T11:32:51.708Z,1010.82
2018-06-29T11:33:51.707Z,1010.81
2018-06-29T11:34:51.700Z,1010.81
2018-06-29T11:35:51.701Z,1010.77
2018-06-29T11:36:51.773Z,1010.77
2018-06-29T11:37:51.695Z,1010.69
2018-06-29T11:38:51.686Z,1010.71
2018-06-29T11:39:51.685Z,1010.64
2018-06-29T11:40:51.682Z,1010.65
2018-06-29T11:41:51.679Z,1010.71
2018-06-29T11:42:51.681Z,1010.70
2018-06-29T11:43:51.673Z,1010.72
2018-06-29T11:44:51.669Z,1010.71
2018-06-29T11:45:51.672Z,1010.64
2018-06-29T11:46:51.663Z,1010.65
2018-06-29T11:47:51.661Z,1010.72
2018-06-29T11:48:51.657Z,1010.66
2018-06-29T11:49:51.658Z,1010.69
2018-06-29T11:50:51.655Z,1010.69
2018-06-29T11:51:51.648Z,1010.70
2018-06-29T11:52:51.643Z,1010.70
2018-06-29T11:53:51.646Z,1010.72
2018-06-29T11:54:51.638Z,1010.63
2018-06-29T11:55:51.636Z,1010.64
2018-06-29T11:56:51.631Z,1010.61
2018-06-29T11:57:51.627Z,1010.61
2018-06-29T11:58:51.623Z,1010.60
2018-06-29T11:59:51.622Z,1010.57
2018-06-29T12:00:51.622Z,1010.57
2018-06-29T12:01:51.614Z,1010.58
2018-06-29T12:02:51.611Z,1010.53
2018-06-29T12:03:51.612Z,1010.56
2018-06-29T12:04:51.604Z,1010.54
2018-06-29T12:05:51.602Z,1010.56